sensor_id;sensor_type;location;lat;lon;timestamp;P1;durP1;ratioP1;P2;durP2;ratioP2
3259;SDS011;22469;48.150;14.004;2022-11-15T00:01:08;31.17;;;22.50;;
3259;SDS011;22469;48.150;14.004;2022-11-15T00:03:37;31.77;;;22.33;;
3259;SDS011;22469;48.150;14.004;2022-11-15T00:06:04;33.23;;;22.43;;
3259;SDS011;22469;48.150;14.004;2022-11-15T00:08:32;33.60;;;23.73;;
3259;SDS011;22469;48.150;14.004;2022-11-15T00:11:00;27.90;;;22.90;;
3259;SDS011;22469;48.150;14.004;2022-11-15T00:13:29;36.90;;;22.30;;
3259;SDS011;22469;48.150;14.004;2022-11-15T00:15:58;33.53;;;21.20;;
3259;SDS011;22469;48.150;14.004;2022-11-15T00:18:27;35.90;;;24.07;;
3259;SDS011;22469;48.150;14.004;2022-11-15T00:20:55;28.27;;;20.10;;
3259;SDS011;22469;48.150;14.004;2022-11-15T00:23:29;31.57;;;19.80;;
3259;SDS011;22469;48.150;14.004;2022-11-15T00:25:57;24.57;;;20.77;;
3259;SDS011;22469;48.150;14.004;2022-11-15T00:28:25;30.13;;;20.60;;
3259;SDS011;22469;48.150;14.004;2022-11-15T00:30:53;27.70;;;22.10;;
3259;SDS011;22469;48.150;14.004;2022-11-15T00:33:20;32.13;;;21.53;;
3259;SDS011;22469;48.150;14.004;2022-11-15T00:35:47;28.40;;;20.87;;
3259;SDS011;22469;48.150;14.004;2022-11-15T00:38:14;34.97;;;22.30;;
3259;SDS011;22469;48.150;14.004;2022-11-15T00:40:41;30.70;;;20.63;;
3259;SDS011;22469;48.150;14.004;2022-11-15T00:43:08;35.47;;;21.10;;
3259;SDS011;22469;48.150;14.004;2022-11-15T00:45:35;25.93;;;20.67;;
3259;SDS011;22469;48.150;14.004;2022-11-15T00:48:02;30.20;;;18.10;;
3259;SDS011;22469;48.150;14.004;2022-11-15T00:50:29;28.50;;;19.67;;
3259;SDS011;22469;48.150;14.004;2022-11-15T00:52:56;24.70;;;19.63;;
3259;SDS011;22469;48.150;14.004;2022-11-15T00:55:23;30.33;;;19.57;;
3259;SDS011;22469;48.150;14.004;2022-11-15T00:57:50;25.27;;;19.30;;
3259;SDS011;22469;48.150;14.004;2022-11-15T01:00:17;28.50;;;20.97;;
3259;SDS011;22469;48.150;14.004;2022-11-15T01:02:44;28.40;;;21.50;;
3259;SDS011;22469;48.150;14.004;2022-11-15T01:05:11;27.47;;;19.13;;
3259;SDS011;22469;48.150;14.004;2022-11-15T01:07:38;25.10;;;19.30;;
3259;SDS011;22469;48.150;14.004;2022-11-15T01:10:05;27.43;;;20.33;;
3259;SDS011;22469;48.150;14.004;2022-11-15T01:12:33;23.20;;;18.37;;
3259;SDS011;22469;48.150;14.004;2022-11-15T01:15:01;25.23;;;19.13;;
3259;SDS011;22469;48.150;14.004;2022-11-15T01:17:30;27.60;;;20.47;;
3259;SDS011;22469;48.150;14.004;2022-11-15T01:19:57;31.37;;;21.00;;
3259;SDS011;22469;48.150;14.004;2022-11-15T01:22:24;23.63;;;20.13;;
3259;SDS011;22469;48.150;14.004;2022-11-15T01:24:51;28.87;;;19.53;;
3259;SDS011;22469;48.150;14.004;2022-11-15T01:27:18;23.17;;;18.63;;
3259;SDS011;22469;48.150;14.004;2022-11-15T01:29:45;23.43;;;17.80;;
3259;SDS011;22469;48.150;14.004;2022-11-15T01:32:12;22.30;;;18.63;;
3259;SDS011;22469;48.150;14.004;2022-11-15T01:34:39;27.40;;;18.97;;
3259;SDS011;22469;48.150;14.004;2022-11-15T01:37:06;23.97;;;18.87;;
3259;SDS011;22469;48.150;14.004;2022-11-15T01:39:33;23.73;;;18.87;;
3259;SDS011;22469;48.150;14.004;2022-11-15T01:42:00;26.60;;;21.17;;
3259;SDS011;22469;48.150;14.004;2022-11-15T01:47:10;29.73;;;19.53;;
3259;SDS011;22469;48.150;14.004;2022-11-15T01:49:40;28.50;;;18.83;;
3259;SDS011;22469;48.150;14.004;2022-11-15T01:52:17;23.13;;;17.20;;
3259;SDS011;22469;48.150;14.004;2022-11-15T01:54:48;25.73;;;19.73;;
3259;SDS011;22469;48.150;14.004;2022-11-15T01:57:21;22.23;;;17.40;;
3259;SDS011;22469;48.150;14.004;2022-11-15T01:59:49;25.83;;;17.67;;
3259;SDS011;22469;48.150;14.004;2022-11-15T02:02:16;22.97;;;18.20;;
3259;SDS011;22469;48.150;14.004;2022-11-15T02:04:45;28.27;;;19.13;;
3259;SDS011;22469;48.150;14.004;2022-11-15T02:07:15;24.20;;;20.73;;
3259;SDS011;22469;48.150;14.004;2022-11-15T02:09:45;23.93;;;19.23;;
3259;SDS011;22469;48.150;14.004;2022-11-15T02:12:17;31.10;;;20.47;;
3259;SDS011;22469;48.150;14.004;2022-11-15T02:14:50;26.00;;;19.47;;
3259;SDS011;22469;48.150;14.004;2022-11-15T02:17:30;27.30;;;19.47;;
3259;SDS011;22469;48.150;14.004;2022-11-15T02:29:13;24.53;;;19.83;;
3259;SDS011;22469;48.150;14.004;2022-11-15T02:31:59;25.50;;;20.20;;
3259;SDS011;22469;48.150;14.004;2022-11-15T02:35:03;26.40;;;18.40;;
3259;SDS011;22469;48.150;14.004;2022-11-15T02:43:58;27.83;;;18.80;;
3259;SDS011;22469;48.150;14.004;2022-11-15T02:49:48;21.90;;;18.30;;
3259;SDS011;22469;48.150;14.004;2022-11-15T02:52:20;24.27;;;18.07;;
3259;SDS011;22469;48.150;14.004;2022-11-15T02:54:56;22.00;;;17.27;;
3259;SDS011;22469;48.150;14.004;2022-11-15T02:57:45;23.77;;;18.30;;
3259;SDS011;22469;48.150;14.004;2022-11-15T03:00:23;24.03;;;17.70;;
3259;SDS011;22469;48.150;14.004;2022-11-15T03:12:12;25.20;;;18.77;;
3259;SDS011;22469;48.150;14.004;2022-11-15T03:15:13;24.77;;;17.57;;
3259;SDS011;22469;48.150;14.004;2022-11-15T03:18:12;22.77;;;19.00;;
3259;SDS011;22469;48.150;14.004;2022-11-15T03:20:57;28.20;;;17.70;;
3259;SDS011;22469;48.150;14.004;2022-11-15T03:23:27;27.93;;;19.20;;
3259;SDS011;22469;48.150;14.004;2022-11-15T03:25:57;24.20;;;19.50;;
3259;SDS011;22469;48.150;14.004;2022-11-15T03:29:11;25.97;;;19.47;;
3259;SDS011;22469;48.150;14.004;2022-11-15T03:31:23;24.60;;;18.10;;
3259;SDS011;22469;48.150;14.004;2022-11-15T03:34:33;25.97;;;17.97;;
3259;SDS011;22469;48.150;14.004;2022-11-15T03:37:07;28.43;;;19.23;;
3259;SDS011;22469;48.150;14.004;2022-11-15T03:39:38;26.53;;;19.80;;
3259;SDS011;22469;48.150;14.004;2022-11-15T03:47:47;27.03;;;19.43;;
3259;SDS011;22469;48.150;14.004;2022-11-15T03:50:23;27.03;;;18.80;;
3259;SDS011;22469;48.150;14.004;2022-11-15T03:52:51;29.40;;;20.40;;
3259;SDS011;22469;48.150;14.004;2022-11-15T03:55:21;27.43;;;19.27;;
3259;SDS011;22469;48.150;14.004;2022-11-15T03:57:49;26.67;;;20.13;;
3259;SDS011;22469;48.150;14.004;2022-11-15T04:00:20;26.30;;;20.97;;
3259;SDS011;22469;48.150;14.004;2022-11-15T04:02:47;30.03;;;20.30;;
3259;SDS011;22469;48.150;14.004;2022-11-15T04:05:14;27.10;;;19.70;;
3259;SDS011;22469;48.150;14.004;2022-11-15T04:07:41;29.53;;;20.03;;
3259;SDS011;22469;48.150;14.004;2022-11-15T04:10:10;30.73;;;21.97;;
3259;SDS011;22469;48.150;14.004;2022-11-15T04:12:39;28.30;;;19.87;;
3259;SDS011;22469;48.150;14.004;2022-11-15T04:15:11;31.90;;;19.53;;
3259;SDS011;22469;48.150;14.004;2022-11-15T04:20:14;27.07;;;20.50;;
3259;SDS011;22469;48.150;14.004;2022-11-15T04:23:02;37.83;;;20.50;;
3259;SDS011;22469;48.150;14.004;2022-11-15T04:25:51;27.13;;;21.20;;
3259;SDS011;22469;48.150;14.004;2022-11-15T04:28:20;30.00;;;20.17;;
3259;SDS011;22469;48.150;14.004;2022-11-15T04:30:48;28.03;;;20.73;;
3259;SDS011;22469;48.150;14.004;2022-11-15T04:33:15;27.97;;;20.57;;
3259;SDS011;22469;48.150;14.004;2022-11-15T04:35:42;29.03;;;20.53;;
3259;SDS011;22469;48.150;14.004;2022-11-15T04:38:10;31.30;;;22.60;;
3259;SDS011;22469;48.150;14.004;2022-11-15T04:40:38;45.73;;;25.20;;
3259;SDS011;22469;48.150;14.004;2022-11-15T04:43:05;41.10;;;29.07;;
3259;SDS011;22469;48.150;14.004;2022-11-15T04:45:32;37.10;;;25.57;;
3259;SDS011;22469;48.150;14.004;2022-11-15T04:47:59;33.43;;;22.33;;
3259;SDS011;22469;48.150;14.004;2022-11-15T04:50:26;37.93;;;21.07;;
3259;SDS011;22469;48.150;14.004;2022-11-15T04:52:53;37.20;;;22.40;;
3259;SDS011;22469;48.150;14.004;2022-11-15T04:55:20;30.83;;;20.80;;
3259;SDS011;22469;48.150;14.004;2022-11-15T04:57:47;37.97;;;22.43;;
3259;SDS011;22469;48.150;14.004;2022-11-15T05:00:27;36.20;;;22.50;;
3259;SDS011;22469;48.150;14.004;2022-11-15T05:02:56;34.80;;;21.40;;
3259;SDS011;22469;48.150;14.004;2022-11-15T05:05:42;30.07;;;20.93;;
3259;SDS011;22469;48.150;14.004;2022-11-15T05:08:09;36.20;;;20.47;;
3259;SDS011;22469;48.150;14.004;2022-11-15T05:10:36;33.27;;;22.07;;
3259;SDS011;22469;48.150;14.004;2022-11-15T05:13:03;39.67;;;22.60;;
3259;SDS011;22469;48.150;14.004;2022-11-15T05:15:30;32.73;;;21.57;;
3259;SDS011;22469;48.150;14.004;2022-11-15T05:17:58;33.40;;;20.93;;
3259;SDS011;22469;48.150;14.004;2022-11-15T05:20:26;27.57;;;19.77;;
3259;SDS011;22469;48.150;14.004;2022-11-15T05:22:53;39.33;;;22.20;;
3259;SDS011;22469;48.150;14.004;2022-11-15T05:25:22;31.17;;;21.70;;
3259;SDS011;22469;48.150;14.004;2022-11-15T05:27:49;42.27;;;23.00;;
3259;SDS011;22469;48.150;14.004;2022-11-15T05:30:16;40.00;;;24.00;;
3259;SDS011;22469;48.150;14.004;2022-11-15T05:32:44;42.77;;;24.17;;
3259;SDS011;22469;48.150;14.004;2022-11-15T05:35:30;40.13;;;22.73;;
3259;SDS011;22469;48.150;14.004;2022-11-15T05:38:23;46.97;;;23.50;;
3259;SDS011;22469;48.150;14.004;2022-11-15T05:40:50;50.90;;;27.60;;
3259;SDS011;22469;48.150;14.004;2022-11-15T05:43:17;36.33;;;25.50;;
3259;SDS011;22469;48.150;14.004;2022-11-15T05:45:44;36.97;;;23.97;;
3259;SDS011;22469;48.150;14.004;2022-11-15T05:48:11;42.17;;;24.07;;
3259;SDS011;22469;48.150;14.004;2022-11-15T05:50:39;33.10;;;21.93;;
3259;SDS011;22469;48.150;14.004;2022-11-15T05:53:10;38.10;;;23.30;;
3259;SDS011;22469;48.150;14.004;2022-11-15T05:55:43;55.83;;;27.83;;
3259;SDS011;22469;48.150;14.004;2022-11-15T05:58:10;50.87;;;26.60;;
3259;SDS011;22469;48.150;14.004;2022-11-15T06:00:38;38.70;;;23.23;;
3259;SDS011;22469;48.150;14.004;2022-11-15T06:03:05;39.93;;;25.07;;
3259;SDS011;22469;48.150;14.004;2022-11-15T06:05:32;38.80;;;24.70;;
3259;SDS011;22469;48.150;14.004;2022-11-15T06:07:59;36.77;;;24.07;;
3259;SDS011;22469;48.150;14.004;2022-11-15T06:10:26;47.10;;;25.07;;
3259;SDS011;22469;48.150;14.004;2022-11-15T06:13:00;41.07;;;25.67;;
3259;SDS011;22469;48.150;14.004;2022-11-15T06:15:31;46.30;;;24.80;;
3259;SDS011;22469;48.150;14.004;2022-11-15T06:18:02;80.13;;;31.97;;
3259;SDS011;22469;48.150;14.004;2022-11-15T06:20:29;59.13;;;32.87;;
3259;SDS011;22469;48.150;14.004;2022-11-15T06:23:00;55.33;;;27.07;;
3259;SDS011;22469;48.150;14.004;2022-11-15T06:25:30;60.87;;;29.97;;
3259;SDS011;22469;48.150;14.004;2022-11-15T06:27:58;61.50;;;29.67;;
3259;SDS011;22469;48.150;14.004;2022-11-15T06:30:26;60.10;;;29.20;;
3259;SDS011;22469;48.150;14.004;2022-11-15T06:33:03;54.10;;;27.50;;
3259;SDS011;22469;48.150;14.004;2022-11-15T06:35:33;40.40;;;28.27;;
3259;SDS011;22469;48.150;14.004;2022-11-15T06:38:05;52.53;;;27.40;;
3259;SDS011;22469;48.150;14.004;2022-11-15T06:40:36;63.23;;;33.77;;
3259;SDS011;22469;48.150;14.004;2022-11-15T06:43:04;85.93;;;27.97;;
3259;SDS011;22469;48.150;14.004;2022-11-15T06:45:32;65.70;;;26.30;;
3259;SDS011;22469;48.150;14.004;2022-11-15T06:48:00;88.33;;;26.53;;
3259;SDS011;22469;48.150;14.004;2022-11-15T06:50:26;47.23;;;25.10;;
3259;SDS011;22469;48.150;14.004;2022-11-15T06:52:54;44.43;;;24.10;;
3259;SDS011;22469;48.150;14.004;2022-11-15T06:55:21;47.83;;;26.10;;
3259;SDS011;22469;48.150;14.004;2022-11-15T06:57:48;59.77;;;25.90;;
3259;SDS011;22469;48.150;14.004;2022-11-15T07:00:20;74.60;;;26.10;;
3259;SDS011;22469;48.150;14.004;2022-11-15T07:02:48;100.63;;;27.33;;
3259;SDS011;22469;48.150;14.004;2022-11-15T07:05:16;53.27;;;27.20;;
3259;SDS011;22469;48.150;14.004;2022-11-15T07:07:43;75.17;;;31.70;;
3259;SDS011;22469;48.150;14.004;2022-11-15T07:10:19;49.13;;;32.93;;
3259;SDS011;22469;48.150;14.004;2022-11-15T07:12:48;62.50;;;32.47;;
3259;SDS011;22469;48.150;14.004;2022-11-15T07:15:16;53.33;;;28.90;;
3259;SDS011;22469;48.150;14.004;2022-11-15T07:17:44;63.97;;;27.83;;
3259;SDS011;22469;48.150;14.004;2022-11-15T07:20:11;66.87;;;30.97;;
3259;SDS011;22469;48.150;14.004;2022-11-15T07:22:40;55.27;;;30.33;;
3259;SDS011;22469;48.150;14.004;2022-11-15T07:25:08;62.83;;;32.53;;
3259;SDS011;22469;48.150;14.004;2022-11-15T07:27:36;65.23;;;30.63;;
3259;SDS011;22469;48.150;14.004;2022-11-15T07:30:04;77.70;;;31.37;;
3259;SDS011;22469;48.150;14.004;2022-11-15T07:32:32;50.17;;;34.00;;
3259;SDS011;22469;48.150;14.004;2022-11-15T07:35:01;52.03;;;32.40;;
3259;SDS011;22469;48.150;14.004;2022-11-15T07:37:28;45.80;;;31.13;;
3259;SDS011;22469;48.150;14.004;2022-11-15T07:39:55;53.20;;;32.57;;
3259;SDS011;22469;48.150;14.004;2022-11-15T07:42:21;72.37;;;36.27;;
3259;SDS011;22469;48.150;14.004;2022-11-15T07:45:07;64.00;;;34.03;;
3259;SDS011;22469;48.150;14.004;2022-11-15T07:47:35;68.97;;;34.33;;
3259;SDS011;22469;48.150;14.004;2022-11-15T07:50:02;76.37;;;33.27;;
3259;SDS011;22469;48.150;14.004;2022-11-15T07:52:29;77.33;;;35.00;;
3259;SDS011;22469;48.150;14.004;2022-11-15T07:54:56;85.60;;;40.60;;
3259;SDS011;22469;48.150;14.004;2022-11-15T07:57:23;90.03;;;35.57;;
3259;SDS011;22469;48.150;14.004;2022-11-15T07:59:50;94.80;;;37.10;;
3259;SDS011;22469;48.150;14.004;2022-11-15T08:02:17;74.67;;;36.80;;
3259;SDS011;22469;48.150;14.004;2022-11-15T08:04:44;92.10;;;38.40;;
3259;SDS011;22469;48.150;14.004;2022-11-15T08:07:12;85.87;;;36.50;;
3259;SDS011;22469;48.150;14.004;2022-11-15T08:09:40;72.80;;;37.77;;
3259;SDS011;22469;48.150;14.004;2022-11-15T08:12:07;76.83;;;40.87;;
3259;SDS011;22469;48.150;14.004;2022-11-15T08:14:35;79.60;;;39.23;;
3259;SDS011;22469;48.150;14.004;2022-11-15T08:17:02;76.10;;;36.30;;
3259;SDS011;22469;48.150;14.004;2022-11-15T08:19:29;71.87;;;38.10;;
3259;SDS011;22469;48.150;14.004;2022-11-15T08:21:56;80.70;;;39.37;;
3259;SDS011;22469;48.150;14.004;2022-11-15T08:24:23;78.83;;;38.60;;
3259;SDS011;22469;48.150;14.004;2022-11-15T08:26:50;93.57;;;41.63;;
3259;SDS011;22469;48.150;14.004;2022-11-15T08:29:17;96.70;;;40.53;;
3259;SDS011;22469;48.150;14.004;2022-11-15T08:31:44;75.30;;;36.83;;
3259;SDS011;22469;48.150;14.004;2022-11-15T08:34:12;79.77;;;38.43;;
3259;SDS011;22469;48.150;14.004;2022-11-15T08:36:39;84.33;;;40.43;;
3259;SDS011;22469;48.150;14.004;2022-11-15T08:39:11;85.73;;;38.57;;
3259;SDS011;22469;48.150;14.004;2022-11-15T08:41:39;88.07;;;39.90;;
3259;SDS011;22469;48.150;14.004;2022-11-15T08:44:06;80.90;;;38.60;;
3259;SDS011;22469;48.150;14.004;2022-11-15T08:46:33;86.17;;;41.60;;
3259;SDS011;22469;48.150;14.004;2022-11-15T08:49:00;81.00;;;39.73;;
3259;SDS011;22469;48.150;14.004;2022-11-15T08:51:27;87.70;;;41.00;;
3259;SDS011;22469;48.150;14.004;2022-11-15T08:53:54;85.13;;;42.90;;
3259;SDS011;22469;48.150;14.004;2022-11-15T08:56:21;85.07;;;40.40;;
3259;SDS011;22469;48.150;14.004;2022-11-15T08:58:48;86.00;;;41.90;;
3259;SDS011;22469;48.150;14.004;2022-11-15T09:01:19;94.30;;;43.13;;
3259;SDS011;22469;48.150;14.004;2022-11-15T09:03:49;83.10;;;41.07;;
3259;SDS011;22469;48.150;14.004;2022-11-15T09:06:16;101.87;;;41.77;;
3259;SDS011;22469;48.150;14.004;2022-11-15T09:08:43;83.00;;;41.30;;
3259;SDS011;22469;48.150;14.004;2022-11-15T09:11:16;84.20;;;41.20;;
3259;SDS011;22469;48.150;14.004;2022-11-15T09:13:46;82.60;;;40.07;;
3259;SDS011;22469;48.150;14.004;2022-11-15T09:16:13;85.87;;;41.00;;
3259;SDS011;22469;48.150;14.004;2022-11-15T09:18:41;78.30;;;38.37;;
3259;SDS011;22469;48.150;14.004;2022-11-15T09:21:09;74.80;;;38.07;;
3259;SDS011;22469;48.150;14.004;2022-11-15T09:23:36;74.20;;;37.80;;
3259;SDS011;22469;48.150;14.004;2022-11-15T09:26:04;76.87;;;41.47;;
3259;SDS011;22469;48.150;14.004;2022-11-15T09:28:32;88.40;;;38.03;;
3259;SDS011;22469;48.150;14.004;2022-11-15T09:31:01;78.20;;;39.40;;
3259;SDS011;22469;48.150;14.004;2022-11-15T09:33:31;75.43;;;37.60;;
3259;SDS011;22469;48.150;14.004;2022-11-15T09:36:06;66.90;;;37.50;;
3259;SDS011;22469;48.150;14.004;2022-11-15T09:38:35;73.37;;;39.20;;
3259;SDS011;22469;48.150;14.004;2022-11-15T09:50:06;67.37;;;35.13;;
3259;SDS011;22469;48.150;14.004;2022-11-15T09:52:39;52.70;;;32.83;;
3259;SDS011;22469;48.150;14.004;2022-11-15T09:55:11;70.07;;;35.37;;
3259;SDS011;22469;48.150;14.004;2022-11-15T09:57:53;59.10;;;34.00;;
3259;SDS011;22469;48.150;14.004;2022-11-15T10:00:47;59.93;;;34.03;;
3259;SDS011;22469;48.150;14.004;2022-11-15T10:03:29;60.97;;;34.30;;
3259;SDS011;22469;48.150;14.004;2022-11-15T10:06:03;53.03;;;32.90;;
3259;SDS011;22469;48.150;14.004;2022-11-15T10:08:53;55.30;;;32.10;;
3259;SDS011;22469;48.150;14.004;2022-11-15T10:11:48;44.40;;;31.33;;
3259;SDS011;22469;48.150;14.004;2022-11-15T10:14:23;45.90;;;29.80;;
3259;SDS011;22469;48.150;14.004;2022-11-15T10:30:35;38.83;;;24.47;;
3259;SDS011;22469;48.150;14.004;2022-11-15T10:41:39;42.17;;;26.10;;
3259;SDS011;22469;48.150;14.004;2022-11-15T10:46:44;42.13;;;25.83;;
3259;SDS011;22469;48.150;14.004;2022-11-15T10:49:25;45.77;;;27.07;;
3259;SDS011;22469;48.150;14.004;2022-11-15T10:52:04;45.47;;;27.73;;
3259;SDS011;22469;48.150;14.004;2022-11-15T10:54:59;45.93;;;28.57;;
3259;SDS011;22469;48.150;14.004;2022-11-15T10:57:48;38.57;;;24.70;;
3259;SDS011;22469;48.150;14.004;2022-11-15T11:03:27;38.33;;;24.17;;
3259;SDS011;22469;48.150;14.004;2022-11-15T11:06:11;32.73;;;22.80;;
3259;SDS011;22469;48.150;14.004;2022-11-15T11:11:47;35.30;;;22.57;;
3259;SDS011;22469;48.150;14.004;2022-11-15T11:17:14;39.07;;;24.80;;
3259;SDS011;22469;48.150;14.004;2022-11-15T11:43:18;40.77;;;24.30;;
3259;SDS011;22469;48.150;14.004;2022-11-15T11:47:03;36.40;;;24.07;;
3259;SDS011;22469;48.150;14.004;2022-11-15T11:49:29;41.77;;;24.63;;
3259;SDS011;22469;48.150;14.004;2022-11-15T11:58:02;40.80;;;23.03;;
3259;SDS011;22469;48.150;14.004;2022-11-15T12:00:38;42.30;;;23.60;;
3259;SDS011;22469;48.150;14.004;2022-11-15T12:03:17;37.90;;;23.60;;
3259;SDS011;22469;48.150;14.004;2022-11-15T12:09:44;37.30;;;23.10;;
3259;SDS011;22469;48.150;14.004;2022-11-15T12:12:42;38.63;;;23.30;;
3259;SDS011;22469;48.150;14.004;2022-11-15T12:15:19;42.83;;;23.50;;
3259;SDS011;22469;48.150;14.004;2022-11-15T12:17:56;37.77;;;22.93;;
3259;SDS011;22469;48.150;14.004;2022-11-15T12:20:29;34.93;;;21.57;;
3259;SDS011;22469;48.150;14.004;2022-11-15T12:23:10;31.77;;;19.33;;
3259;SDS011;22469;48.150;14.004;2022-11-15T12:25:46;35.33;;;20.80;;
3259;SDS011;22469;48.150;14.004;2022-11-15T12:28:47;33.57;;;20.70;;
3259;SDS011;22469;48.150;14.004;2022-11-15T12:34:12;31.33;;;20.00;;
3259;SDS011;22469;48.150;14.004;2022-11-15T12:36:46;44.97;;;22.97;;
3259;SDS011;22469;48.150;14.004;2022-11-15T12:39:16;40.70;;;23.60;;
3259;SDS011;22469;48.150;14.004;2022-11-15T12:47:13;39.40;;;22.63;;
3259;SDS011;22469;48.150;14.004;2022-11-15T12:49:51;34.97;;;20.83;;
3259;SDS011;22469;48.150;14.004;2022-11-15T12:52:19;35.20;;;20.63;;
3259;SDS011;22469;48.150;14.004;2022-11-15T12:54:50;38.80;;;21.27;;
3259;SDS011;22469;48.150;14.004;2022-11-15T13:00:36;30.63;;;21.00;;
3259;SDS011;22469;48.150;14.004;2022-11-15T13:03:12;31.53;;;20.17;;
3259;SDS011;22469;48.150;14.004;2022-11-15T13:05:55;35.43;;;20.67;;
3259;SDS011;22469;48.150;14.004;2022-11-15T13:08:39;40.03;;;24.10;;
3259;SDS011;22469;48.150;14.004;2022-11-15T13:11:48;39.73;;;22.03;;
3259;SDS011;22469;48.150;14.004;2022-11-15T13:25:21;31.97;;;19.33;;
3259;SDS011;22469;48.150;14.004;2022-11-15T13:30:57;36.87;;;23.17;;
3259;SDS011;22469;48.150;14.004;2022-11-15T13:33:47;39.30;;;20.83;;
3259;SDS011;22469;48.150;14.004;2022-11-15T13:36:15;32.17;;;20.43;;
3259;SDS011;22469;48.150;14.004;2022-11-15T13:38:55;43.83;;;21.40;;
3259;SDS011;22469;48.150;14.004;2022-11-15T13:41:51;36.57;;;20.70;;
3259;SDS011;22469;48.150;14.004;2022-11-15T13:44:20;33.80;;;20.60;;
3259;SDS011;22469;48.150;14.004;2022-11-15T13:47:04;40.30;;;21.10;;
3259;SDS011;22469;48.150;14.004;2022-11-15T13:49:39;33.30;;;20.90;;
3259;SDS011;22469;48.150;14.004;2022-11-15T13:52:08;33.77;;;20.93;;
3259;SDS011;22469;48.150;14.004;2022-11-15T13:54:44;36.57;;;21.30;;
3259;SDS011;22469;48.150;14.004;2022-11-15T13:57:21;31.37;;;19.90;;
3259;SDS011;22469;48.150;14.004;2022-11-15T14:00:04;28.90;;;19.40;;
3259;SDS011;22469;48.150;14.004;2022-11-15T14:02:50;31.27;;;18.40;;
3259;SDS011;22469;48.150;14.004;2022-11-15T14:05:20;34.70;;;20.37;;
3259;SDS011;22469;48.150;14.004;2022-11-15T14:08:33;41.37;;;23.00;;
3259;SDS011;22469;48.150;14.004;2022-11-15T14:10:47;32.00;;;19.87;;
3259;SDS011;22469;48.150;14.004;2022-11-15T14:13:27;36.17;;;19.60;;
3259;SDS011;22469;48.150;14.004;2022-11-15T14:18:50;29.57;;;20.27;;
3259;SDS011;22469;48.150;14.004;2022-11-15T14:21:19;29.70;;;19.87;;
3259;SDS011;22469;48.150;14.004;2022-11-15T14:23:47;32.67;;;21.30;;
3259;SDS011;22469;48.150;14.004;2022-11-15T14:29:27;34.87;;;18.93;;
3259;SDS011;22469;48.150;14.004;2022-11-15T14:32:10;37.33;;;20.47;;
3259;SDS011;22469;48.150;14.004;2022-11-15T14:40:01;38.83;;;21.83;;
3259;SDS011;22469;48.150;14.004;2022-11-15T14:42:30;33.40;;;19.20;;
3259;SDS011;22469;48.150;14.004;2022-11-15T14:44:58;33.73;;;19.60;;
3259;SDS011;22469;48.150;14.004;2022-11-15T14:47:25;28.40;;;18.47;;
3259;SDS011;22469;48.150;14.004;2022-11-15T14:49:52;32.47;;;19.53;;
3259;SDS011;22469;48.150;14.004;2022-11-15T14:52:29;30.00;;;20.27;;
3259;SDS011;22469;48.150;14.004;2022-11-15T14:55:03;31.27;;;19.10;;
3259;SDS011;22469;48.150;14.004;2022-11-15T14:57:42;32.20;;;21.37;;
3259;SDS011;22469;48.150;14.004;2022-11-15T15:00:09;38.33;;;23.90;;
3259;SDS011;22469;48.150;14.004;2022-11-15T15:02:37;41.73;;;24.87;;
3259;SDS011;22469;48.150;14.004;2022-11-15T15:07:47;39.10;;;22.60;;
3259;SDS011;22469;48.150;14.004;2022-11-15T15:10:15;41.10;;;23.40;;
3259;SDS011;22469;48.150;14.004;2022-11-15T15:13:03;39.60;;;21.90;;
3259;SDS011;22469;48.150;14.004;2022-11-15T15:15:33;37.83;;;24.23;;
3259;SDS011;22469;48.150;14.004;2022-11-15T15:18:02;47.30;;;23.47;;
3259;SDS011;22469;48.150;14.004;2022-11-15T15:20:31;36.37;;;20.10;;
3259;SDS011;22469;48.150;14.004;2022-11-15T15:22:59;35.07;;;20.37;;
3259;SDS011;22469;48.150;14.004;2022-11-15T15:25:27;34.53;;;19.73;;
3259;SDS011;22469;48.150;14.004;2022-11-15T15:27:59;38.70;;;22.90;;
3259;SDS011;22469;48.150;14.004;2022-11-15T15:30:28;37.10;;;24.33;;
3259;SDS011;22469;48.150;14.004;2022-11-15T15:32:56;38.30;;;25.10;;
3259;SDS011;22469;48.150;14.004;2022-11-15T15:35:24;37.80;;;27.03;;
3259;SDS011;22469;48.150;14.004;2022-11-15T15:37:59;41.40;;;26.80;;
3259;SDS011;22469;48.150;14.004;2022-11-15T15:40:28;34.83;;;20.30;;
3259;SDS011;22469;48.150;14.004;2022-11-15T15:42:57;31.63;;;20.77;;
3259;SDS011;22469;48.150;14.004;2022-11-15T15:45:26;32.60;;;21.60;;
3259;SDS011;22469;48.150;14.004;2022-11-15T15:47:54;33.20;;;21.07;;
3259;SDS011;22469;48.150;14.004;2022-11-15T15:52:57;27.93;;;18.60;;
3259;SDS011;22469;48.150;14.004;2022-11-15T15:55:26;35.13;;;21.00;;
3259;SDS011;22469;48.150;14.004;2022-11-15T15:57:55;36.70;;;20.37;;
3259;SDS011;22469;48.150;14.004;2022-11-15T16:00:23;33.60;;;22.80;;
3259;SDS011;22469;48.150;14.004;2022-11-15T16:02:52;34.90;;;21.70;;
3259;SDS011;22469;48.150;14.004;2022-11-15T16:05:21;37.60;;;20.17;;
3259;SDS011;22469;48.150;14.004;2022-11-15T16:07:49;38.40;;;22.83;;
3259;SDS011;22469;48.150;14.004;2022-11-15T16:12:53;47.10;;;24.40;;
3259;SDS011;22469;48.150;14.004;2022-11-15T16:15:23;37.70;;;21.67;;
3259;SDS011;22469;48.150;14.004;2022-11-15T16:17:53;44.60;;;28.43;;
3259;SDS011;22469;48.150;14.004;2022-11-15T16:20:31;41.30;;;27.00;;
3259;SDS011;22469;48.150;14.004;2022-11-15T16:23:12;40.93;;;23.77;;
3259;SDS011;22469;48.150;14.004;2022-11-15T16:25:45;39.30;;;24.33;;
3259;SDS011;22469;48.150;14.004;2022-11-15T16:28:25;37.00;;;23.60;;
3259;SDS011;22469;48.150;14.004;2022-11-15T16:30:59;43.80;;;23.77;;
3259;SDS011;22469;48.150;14.004;2022-11-15T16:33:34;46.00;;;26.50;;
3259;SDS011;22469;48.150;14.004;2022-11-15T16:36:02;49.20;;;29.10;;
3259;SDS011;22469;48.150;14.004;2022-11-15T16:38:32;37.70;;;23.40;;
3259;SDS011;22469;48.150;14.004;2022-11-15T16:41:00;39.17;;;23.83;;
3259;SDS011;22469;48.150;14.004;2022-11-15T16:43:27;44.80;;;24.90;;
3259;SDS011;22469;48.150;14.004;2022-11-15T16:45:54;42.63;;;23.70;;
3259;SDS011;22469;48.150;14.004;2022-11-15T16:48:22;38.87;;;22.17;;
3259;SDS011;22469;48.150;14.004;2022-11-15T16:50:54;45.03;;;22.83;;
3259;SDS011;22469;48.150;14.004;2022-11-15T16:53:23;36.10;;;21.97;;
3259;SDS011;22469;48.150;14.004;2022-11-15T16:55:53;46.97;;;24.70;;
3259;SDS011;22469;48.150;14.004;2022-11-15T16:58:22;48.83;;;26.13;;
3259;SDS011;22469;48.150;14.004;2022-11-15T17:00:53;42.40;;;25.67;;
3259;SDS011;22469;48.150;14.004;2022-11-15T17:03:22;40.63;;;23.30;;
3259;SDS011;22469;48.150;14.004;2022-11-15T17:05:50;44.50;;;22.87;;
3259;SDS011;22469;48.150;14.004;2022-11-15T17:08:18;44.07;;;23.00;;
3259;SDS011;22469;48.150;14.004;2022-11-15T17:10:47;48.53;;;26.33;;
3259;SDS011;22469;48.150;14.004;2022-11-15T17:13:15;46.30;;;24.80;;
3259;SDS011;22469;48.150;14.004;2022-11-15T17:15:42;46.50;;;24.73;;
3259;SDS011;22469;48.150;14.004;2022-11-15T17:18:12;41.13;;;22.70;;
3259;SDS011;22469;48.150;14.004;2022-11-15T17:20:41;45.03;;;24.27;;
3259;SDS011;22469;48.150;14.004;2022-11-15T17:23:12;50.73;;;24.57;;
3259;SDS011;22469;48.150;14.004;2022-11-15T17:25:40;52.20;;;26.03;;
3259;SDS011;22469;48.150;14.004;2022-11-15T17:28:07;56.87;;;27.67;;